createdAt,value
2019-01-18T00:01:51.363Z,97.00
2019-01-18T00:07:33.939Z,97.00
2019-01-18T00:13:16.136Z,97.00
2019-01-18T00:16:04.518Z,97.00
2019-01-18T00:18:52.661Z,97.00
2019-01-18T00:21:33.481Z,97.00
2019-01-18T00:24:14.251Z,97.00
2019-01-18T00:26:55.112Z,97.00
2019-01-18T00:29:35.703Z,97.00
2019-01-18T00:32:16.065Z,97.00
2019-01-18T00:34:56.604Z,97.00
2019-01-18T00:37:37.856Z,97.00
2019-01-18T00:40:21.611Z,97.00
2019-01-18T00:45:46.533Z,97.00
2019-01-18T00:48:55.509Z,97.00
2019-01-18T00:51:44.051Z,97.00
2019-01-18T00:54:32.393Z,97.00
2019-01-18T00:57:15.684Z,97.00
2019-01-18T00:59:57.220Z,97.00
2019-01-18T01:02:38.309Z,97.00
2019-01-18T01:08:18.257Z,97.00
2019-01-18T01:10:59.225Z,97.00
2019-01-18T01:13:40.556Z,97.00
2019-01-18T01:16:21.086Z,97.00
2019-01-18T01:19:02.043Z,97.00
2019-01-18T01:21:42.732Z,97.00
2019-01-18T01:24:23.611Z,97.00
2019-01-18T01:27:04.261Z,97.00
2019-01-18T01:29:45.092Z,97.00
2019-01-18T01:32:25.670Z,97.00
2019-01-18T01:35:06.559Z,97.00
2019-01-18T01:37:47.377Z,97.00
2019-01-18T01:40:28.245Z,97.00
2019-01-18T01:43:09.753Z,97.00
2019-01-18T01:48:33.045Z,97.00
2019-01-18T01:51:21.546Z,97.00
2019-01-18T01:53:51.123Z,97.00
2019-01-18T01:56:39.537Z,97.00
2019-01-18T01:59:27.884Z,97.00
2019-01-18T02:02:16.424Z,97.00
2019-01-18T02:04:57.287Z,97.00
2019-01-18T02:07:38.335Z,97.00
2019-01-18T02:10:18.908Z,97.00
2019-01-18T02:13:00.346Z,97.00
2019-01-18T02:15:29.900Z,97.00
2019-01-18T02:18:18.180Z,97.00
2019-01-18T02:21:06.505Z,97.00
2019-01-18T02:23:54.955Z,97.00
2019-01-18T02:26:43.366Z,97.00
2019-01-18T02:29:31.743Z,97.00
2019-01-18T02:32:20.472Z,97.00
2019-01-18T02:37:56.895Z,97.00
2019-01-18T02:40:45.222Z,97.00
2019-01-18T02:43:33.646Z,97.00
2019-01-18T02:46:22.093Z,97.00
2019-01-18T02:49:10.553Z,97.00
2019-01-18T02:51:58.754Z,97.00
2019-01-18T02:54:28.119Z,97.00
2019-01-18T02:57:16.284Z,97.00
2019-01-18T03:00:26.658Z,97.00
2019-01-18T03:02:55.855Z,97.00
2019-01-18T03:05:44.247Z,97.00
2019-01-18T03:08:13.307Z,97.00
2019-01-18T03:11:01.606Z,97.00
2019-01-18T03:13:50.077Z,97.00
2019-01-18T03:16:40.390Z,97.00
2019-01-18T03:19:28.689Z,97.00
2019-01-18T03:25:12.620Z,97.00
2019-01-18T03:30:55.278Z,97.00
2019-01-18T03:33:43.563Z,97.00
2019-01-18T03:36:32.159Z,97.00
2019-01-18T03:39:20.389Z,97.00
2019-01-18T03:45:16.900Z,97.00
2019-01-18T03:50:52.481Z,97.00
2019-01-18T03:53:21.727Z,97.00
2019-01-18T03:56:09.959Z,97.00
2019-01-18T03:58:50.657Z,97.00
2019-01-18T04:01:31.488Z,97.00
2019-01-18T04:07:11.886Z,97.00
2019-01-18T04:09:53.464Z,97.00
2019-01-18T04:12:22.606Z,97.00
2019-01-18T04:15:12.105Z,97.00
2019-01-18T04:18:00.529Z,97.00
2019-01-18T04:20:49.051Z,97.00
2019-01-18T04:23:30.172Z,97.00
2019-01-18T04:26:11.020Z,97.00
2019-01-18T04:28:52.253Z,97.00
2019-01-18T04:31:33.402Z,97.00
2019-01-18T04:34:14.774Z,97.00
2019-01-18T04:37:13.403Z,97.00
2019-01-18T04:43:09.071Z,97.00
2019-01-18T04:45:57.436Z,97.00
2019-01-18T04:48:47.722Z,97.00
2019-01-18T04:51:17.095Z,97.00
2019-01-18T04:53:46.443Z,97.00
2019-01-18T04:56:34.965Z,97.00
2019-01-18T04:59:23.313Z,97.00
2019-01-18T05:02:11.820Z,97.00
2019-01-18T05:05:00.352Z,97.00
2019-01-18T05:07:48.846Z,97.00
2019-01-18T05:10:37.066Z,97.00
2019-01-18T05:13:25.607Z,97.00
2019-01-18T05:19:09.424Z,97.00
2019-01-18T05:21:57.955Z,97.00
2019-01-18T05:24:38.487Z,97.00
2019-01-18T05:27:19.551Z,97.00
2019-01-18T05:30:00.654Z,97.00
2019-01-18T05:32:42.268Z,97.00
2019-01-18T05:35:23.606Z,97.00
2019-01-18T05:38:04.518Z,97.00
2019-01-18T05:40:45.925Z,97.00
2019-01-18T05:43:26.705Z,97.00
2019-01-18T05:46:07.335Z,97.00
2019-01-18T05:48:36.581Z,97.00
2019-01-18T05:51:24.975Z,97.00
2019-01-18T05:54:13.462Z,97.00
2019-01-18T05:57:01.942Z,97.00
2019-01-18T05:59:42.640Z,97.00
2019-01-18T06:02:23.922Z,97.00
2019-01-18T06:05:05.017Z,97.00
2019-01-18T06:07:46.541Z,97.00
2019-01-18T06:10:27.908Z,97.00
2019-01-18T06:13:09.234Z,97.00
2019-01-18T06:15:50.886Z,97.00
2019-01-18T06:18:32.221Z,97.00
2019-01-18T06:21:12.772Z,97.00
2019-01-18T06:23:53.773Z,97.00
2019-01-18T06:26:35.044Z,97.00
2019-01-18T06:29:16.029Z,97.00
2019-01-18T06:31:45.152Z,97.00
2019-01-18T06:34:34.015Z,97.00
2019-01-18T06:37:22.417Z,97.00
2019-01-18T06:40:11.755Z,97.00
2019-01-18T06:43:00.068Z,97.00
2019-01-18T06:45:29.844Z,97.00
2019-01-18T06:51:16.481Z,97.00
2019-01-18T06:54:05.245Z,97.00
2019-01-18T06:56:53.654Z,97.00
2019-01-18T06:59:22.816Z,97.00
2019-01-18T07:02:11.119Z,97.00
2019-01-18T07:04:59.784Z,97.00
2019-01-18T07:07:48.094Z,97.00
2019-01-18T07:13:31.253Z,97.00
2019-01-18T07:18:54.597Z,97.00
2019-01-18T07:21:43.111Z,97.00
2019-01-18T07:24:23.799Z,97.00
2019-01-18T07:26:53.177Z,97.00
2019-01-18T07:32:35.959Z,97.00
2019-01-18T07:35:24.297Z,97.00
2019-01-18T07:38:12.604Z,97.00
2019-01-18T07:41:00.958Z,97.00
2019-01-18T07:49:36.429Z,97.00
2019-01-18T07:52:16.947Z,97.00
2019-01-18T07:54:46.044Z,97.00
2019-01-18T07:57:15.347Z,97.00
2019-01-18T07:59:44.498Z,97.00
2019-01-18T08:02:13.603Z,97.00
2019-01-18T08:04:42.595Z,97.00
2019-01-18T08:07:11.668Z,97.00
2019-01-18T08:09:40.762Z,97.00
2019-01-18T08:12:09.868Z,97.00
2019-01-18T08:14:39.172Z,97.00
2019-01-18T08:17:27.783Z,97.00
2019-01-18T08:20:17.184Z,97.00
2019-01-18T08:22:46.412Z,97.00
2019-01-18T08:25:34.803Z,97.00
2019-01-18T08:28:23.271Z,97.00
2019-01-18T08:31:11.634Z,97.00
2019-01-18T08:33:40.925Z,97.00
2019-01-18T08:39:24.754Z,97.00
2019-01-18T08:42:12.980Z,97.00
2019-01-18T08:45:01.390Z,97.00
2019-01-18T08:47:49.732Z,97.00
2019-01-18T08:50:19.242Z,97.00
2019-01-18T08:53:00.583Z,97.00
2019-01-18T08:55:41.436Z,97.00
2019-01-18T08:58:22.303Z,97.00
2019-01-18T09:01:03.452Z,97.00
2019-01-18T09:03:43.843Z,97.00
2019-01-18T09:06:24.909Z,97.00
2019-01-18T09:09:06.157Z,97.00
2019-01-18T09:11:47.212Z,97.00
2019-01-18T09:14:27.967Z,97.00
2019-01-18T09:17:08.909Z,97.00
2019-01-18T09:19:48.671Z,97.00
2019-01-18T09:22:37.135Z,97.00
2019-01-18T09:25:25.532Z,97.00
2019-01-18T09:28:14.164Z,97.00
2019-01-18T09:36:43.949Z,97.00
2019-01-18T09:39:32.318Z,97.00
2019-01-18T09:42:20.707Z,97.00
2019-01-18T09:45:09.385Z,97.00
2019-01-18T09:47:57.719Z,97.00
2019-01-18T09:50:46.166Z,97.00
2019-01-18T09:53:27.517Z,97.00
2019-01-18T09:55:56.924Z,97.00
2019-01-18T09:58:45.362Z,97.00
2019-01-18T10:01:33.604Z,97.00
2019-01-18T10:04:21.970Z,97.00
2019-01-18T10:07:10.284Z,97.00
2019-01-18T10:09:58.653Z,97.00
2019-01-18T10:12:47.090Z,97.00
2019-01-18T10:15:54.730Z,97.00
2019-01-18T10:18:43.153Z,97.00
2019-01-18T10:21:31.603Z,97.00
2019-01-18T10:24:21.075Z,97.00
2019-01-18T10:27:02.537Z,97.00
2019-01-18T10:29:43.835Z,97.00
2019-01-18T10:32:25.020Z,97.00
2019-01-18T10:35:06.045Z,97.00
2019-01-18T10:37:46.928Z,97.00
2019-01-18T10:40:27.877Z,97.00
2019-01-18T10:43:08.734Z,97.00
2019-01-18T10:45:49.257Z,97.00
2019-01-18T10:51:31.373Z,97.00
2019-01-18T10:54:12.046Z,97.00
2019-01-18T10:56:52.684Z,97.00
2019-01-18T10:59:33.263Z,97.00
2019-01-18T11:02:13.914Z,97.00
2019-01-18T11:04:43.060Z,97.00
2019-01-18T11:07:31.179Z,97.00
2019-01-18T11:10:19.528Z,97.00
2019-01-18T11:13:07.759Z,97.00
2019-01-18T11:15:55.992Z,97.00
2019-01-18T11:18:44.529Z,97.00
2019-01-18T11:24:28.266Z,97.00
2019-01-18T11:27:09.196Z,97.00
2019-01-18T11:29:50.506Z,97.00
2019-01-18T11:32:30.993Z,97.00
2019-01-18T11:35:11.461Z,97.00
2019-01-18T11:37:52.732Z,97.00
2019-01-18T11:40:34.587Z,97.00
2019-01-18T11:43:15.983Z,97.00
2019-01-18T11:45:56.555Z,97.00
2019-01-18T11:48:37.818Z,97.00
2019-01-18T11:51:18.685Z,97.00
2019-01-18T11:53:59.677Z,97.00
2019-01-18T11:56:40.427Z,97.00
2019-01-18T11:59:21.853Z,97.00
2019-01-18T12:02:03.422Z,97.00
2019-01-18T12:04:44.833Z,97.00
2019-01-18T12:07:25.676Z,97.00
2019-01-18T12:10:06.484Z,97.00
2019-01-18T12:12:48.054Z,97.00
2019-01-18T12:15:29.179Z,97.00
2019-01-18T12:18:10.501Z,97.00
2019-01-18T12:20:51.396Z,97.00
2019-01-18T12:23:32.667Z,97.00
2019-01-18T12:26:13.353Z,97.00
2019-01-18T12:28:54.778Z,97.00
2019-01-18T12:31:37.197Z,97.00
2019-01-18T12:34:17.705Z,97.00
2019-01-18T12:36:59.172Z,97.00
2019-01-18T12:39:40.540Z,97.00
2019-01-18T12:42:21.121Z,97.00
2019-01-18T12:45:01.645Z,97.00
2019-01-18T12:47:42.344Z,97.00
2019-01-18T12:50:22.840Z,97.00
2019-01-18T12:53:03.450Z,97.00
2019-01-18T12:55:44.319Z,97.00
2019-01-18T12:58:25.334Z,97.00
2019-01-18T13:01:06.352Z,97.00
2019-01-18T13:03:46.710Z,97.00
2019-01-18T13:06:27.831Z,97.00
2019-01-18T13:09:08.855Z,97.00
2019-01-18T13:11:49.303Z,97.00
2019-01-18T13:14:30.381Z,97.00
2019-01-18T13:17:10.903Z,97.00
2019-01-18T13:19:52.092Z,97.00
2019-01-18T13:22:33.227Z,97.00
2019-01-18T13:25:14.059Z,97.00
2019-01-18T13:27:54.450Z,97.00
2019-01-18T13:30:35.810Z,97.00
2019-01-18T13:33:17.143Z,97.00
2019-01-18T13:35:58.184Z,97.00
2019-01-18T13:38:38.676Z,97.00
2019-01-18T13:41:19.575Z,97.00
2019-01-18T13:44:00.325Z,97.00
2019-01-18T13:46:40.701Z,97.00
2019-01-18T13:49:21.423Z,97.00
2019-01-18T13:52:09.586Z,96.60
2019-01-18T13:54:39.035Z,96.60
2019-01-18T13:57:27.393Z,95.10
2019-01-18T14:00:16.135Z,94.80
2019-01-18T14:05:58.130Z,94.70
2019-01-18T14:08:46.319Z,95.50
2019-01-18T14:11:17.008Z,95.40
2019-01-18T14:14:05.391Z,95.30
2019-01-18T14:16:53.756Z,95.40
2019-01-18T14:19:42.187Z,94.40
2019-01-18T14:22:30.413Z,95.00
2019-01-18T14:25:18.623Z,95.10
2019-01-18T14:28:00.091Z,94.60
2019-01-18T14:30:29.357Z,95.30
2019-01-18T14:32:58.652Z,95.50
2019-01-18T14:35:27.850Z,96.40
2019-01-18T14:38:16.017Z,96.50
2019-01-18T14:41:04.285Z,96.30
2019-01-18T14:43:52.467Z,96.40
2019-01-18T14:46:40.732Z,96.40
2019-01-18T14:49:32.486Z,95.80
2019-01-18T14:52:18.990Z,96.40
2019-01-18T14:55:07.701Z,97.00
2019-01-18T14:57:56.161Z,95.90
2019-01-18T15:00:44.329Z,94.70
2019-01-18T15:03:32.635Z,95.60
2019-01-18T15:08:55.749Z,97.00
2019-01-18T15:11:37.099Z,97.00
2019-01-18T15:14:18.343Z,97.00
2019-01-18T15:16:58.863Z,97.00
2019-01-18T15:19:39.583Z,97.00
2019-01-18T15:22:20.048Z,97.00
2019-01-18T15:25:00.559Z,97.00
2019-01-18T15:27:29.714Z,97.00
2019-01-18T15:30:37.182Z,97.00
2019-01-18T15:33:25.529Z,97.00
2019-01-18T15:35:55.201Z,97.00
2019-01-18T15:38:24.197Z,97.00
2019-01-18T15:40:53.349Z,97.00
2019-01-18T15:43:24.901Z,97.00
2019-01-18T15:45:54.077Z,97.00
2019-01-18T15:48:23.411Z,97.00
2019-01-18T15:50:52.571Z,97.00
2019-01-18T15:53:21.698Z,97.00
2019-01-18T15:55:50.816Z,97.00
2019-01-18T15:58:20.129Z,97.00
2019-01-18T16:01:08.411Z,97.00
2019-01-18T16:03:56.712Z,97.00
2019-01-18T16:06:44.937Z,97.00
2019-01-18T16:09:26.184Z,97.00
2019-01-18T16:12:07.559Z,97.00
2019-01-18T16:14:48.747Z,97.00
2019-01-18T16:17:37.187Z,97.00
2019-01-18T16:20:10.460Z,97.00
2019-01-18T16:22:58.636Z,97.00
2019-01-18T16:25:46.818Z,97.00
2019-01-18T16:28:28.204Z,97.00
2019-01-18T16:31:09.653Z,97.00
2019-01-18T16:33:38.897Z,97.00
2019-01-18T16:36:27.160Z,97.00
2019-01-18T16:39:15.453Z,97.00
2019-01-18T16:42:03.881Z,97.00
2019-01-18T16:44:52.064Z,97.00
2019-01-18T16:47:40.235Z,97.00
2019-01-18T16:50:10.497Z,97.00
2019-01-18T16:52:39.545Z,97.00
2019-01-18T16:55:09.756Z,97.00
2019-01-18T16:57:49.144Z,97.00
2019-01-18T17:03:32.725Z,97.00
2019-01-18T17:06:20.900Z,97.00
2019-01-18T17:09:09.156Z,97.00
2019-01-18T17:11:38.292Z,97.00
2019-01-18T17:14:26.560Z,97.00
2019-01-18T17:17:14.815Z,97.00
2019-01-18T17:20:03.058Z,97.00
2019-01-18T17:22:51.257Z,97.00
2019-01-18T17:25:39.389Z,97.00
2019-01-18T17:28:20.707Z,97.00
2019-01-18T17:30:49.881Z,97.00
2019-01-18T17:33:38.586Z,97.00
2019-01-18T17:36:29.423Z,97.00
2019-01-18T17:39:36.717Z,97.00
2019-01-18T17:42:44.129Z,97.00
2019-01-18T17:45:51.384Z,97.00
2019-01-18T17:51:57.179Z,97.00
2019-01-18T17:55:04.481Z,97.00
2019-01-18T17:58:11.736Z,97.00
2019-01-18T18:01:19.097Z,97.00
2019-01-18T18:04:26.497Z,97.00
2019-01-18T18:07:20.371Z,97.00
2019-01-18T18:10:14.537Z,97.00
2019-01-18T18:13:22.672Z,97.00
2019-01-18T18:16:29.974Z,97.00
2019-01-18T18:19:37.249Z,97.00
2019-01-18T18:22:44.544Z,97.00
2019-01-18T18:25:37.913Z,97.00
2019-01-18T18:28:45.180Z,97.00
2019-01-18T18:31:40.558Z,97.00
2019-01-18T18:34:42.873Z,97.00
2019-01-18T18:37:50.243Z,97.00
2019-01-18T18:40:42.404Z,97.00
2019-01-18T18:43:49.824Z,97.00
2019-01-18T18:46:43.739Z,97.00
2019-01-18T18:49:51.154Z,97.00
2019-01-18T18:52:58.690Z,97.00
2019-01-18T18:56:05.993Z,97.00
2019-01-18T18:59:13.458Z,97.00
2019-01-18T19:02:20.764Z,97.00
2019-01-18T19:05:28.138Z,97.00
2019-01-18T19:08:21.427Z,97.00
2019-01-18T19:17:10.126Z,97.00
2019-01-18T19:20:03.179Z,97.00
2019-01-18T19:23:10.490Z,97.00
2019-01-18T19:26:18.014Z,97.00
2019-01-18T19:29:25.897Z,97.00
2019-01-18T19:44:54.445Z,97.00
2019-01-18T19:48:01.894Z,97.00
2019-01-18T19:51:09.267Z,97.00
2019-01-18T19:54:11.765Z,97.00
2019-01-18T19:57:09.171Z,97.00
2019-01-18T20:00:16.842Z,97.00
2019-01-18T20:03:10.928Z,97.00
2019-01-18T20:06:18.630Z,97.00
2019-01-18T20:09:26.630Z,97.00
2019-01-18T20:12:34.328Z,97.00
2019-01-18T20:15:15.292Z,97.00
2019-01-18T20:21:03.545Z,97.00
2019-01-18T20:24:33.891Z,97.00
2019-01-18T20:27:38.682Z,97.00
2019-01-18T20:31:02.830Z,97.00
2019-01-18T20:34:10.361Z,97.00
2019-01-18T20:37:52.662Z,97.00
2019-01-18T20:40:44.348Z,97.00
2019-01-18T20:43:55.625Z,97.00
2019-01-18T20:47:03.184Z,97.00
2019-01-18T20:49:55.393Z,97.00
2019-01-18T20:52:48.222Z,97.00
2019-01-18T20:55:55.566Z,97.00
2019-01-18T20:59:02.843Z,97.00
2019-01-18T21:02:10.177Z,97.00
2019-01-18T21:05:17.483Z,97.00
2019-01-18T21:08:33.691Z,97.00
2019-01-18T21:11:41.170Z,97.00
2019-01-18T21:17:49.931Z,97.00
2019-01-18T21:20:30.479Z,97.00
2019-01-18T21:23:38.024Z,97.00
2019-01-18T21:26:29.944Z,97.00
2019-01-18T21:29:37.208Z,97.00
2019-01-18T21:32:44.604Z,97.00
2019-01-18T21:35:51.989Z,97.00
2019-01-18T21:38:59.561Z,97.00
2019-01-18T21:42:06.946Z,97.00
2019-01-18T21:45:09.078Z,97.00
2019-01-18T21:48:16.810Z,97.00
2019-01-18T21:51:08.529Z,97.00
2019-01-18T21:54:16.140Z,97.00
2019-01-18T21:57:23.961Z,97.00
2019-01-18T22:00:31.456Z,97.00
2019-01-18T22:03:38.844Z,97.00
2019-01-18T22:06:46.368Z,97.00
2019-01-18T22:09:54.153Z,97.00
2019-01-18T22:13:01.525Z,97.00
2019-01-18T22:16:08.840Z,97.00
2019-01-18T22:19:16.151Z,97.00
2019-01-18T22:22:23.551Z,97.00
2019-01-18T22:25:25.337Z,97.00
2019-01-18T22:28:32.677Z,97.00
2019-01-18T22:31:14.147Z,97.00
2019-01-18T22:33:55.384Z,97.00
2019-01-18T22:36:36.006Z,97.00
2019-01-18T22:39:17.087Z,97.00
2019-01-18T22:41:58.184Z,97.00
2019-01-18T22:44:38.717Z,97.00
2019-01-18T22:47:20.312Z,97.00
2019-01-18T22:50:01.716Z,97.00
2019-01-18T22:55:55.135Z,97.00
2019-01-18T22:58:36.291Z,97.00
2019-01-18T23:01:17.891Z,97.00
2019-01-18T23:03:58.579Z,97.00
2019-01-18T23:06:39.317Z,97.00
2019-01-18T23:09:19.903Z,97.00
2019-01-18T23:12:00.896Z,97.00
2019-01-18T23:14:41.600Z,97.00
2019-01-18T23:17:22.886Z,97.00
2019-01-18T23:20:03.339Z,97.00
2019-01-18T23:22:44.620Z,97.00
2019-01-18T23:25:26.040Z,97.00
2019-01-18T23:28:06.786Z,97.00
2019-01-18T23:30:47.973Z,97.00
2019-01-18T23:33:29.021Z,97.00
2019-01-18T23:36:10.282Z,97.00
2019-01-18T23:38:51.608Z,97.00
2019-01-18T23:41:32.524Z,97.00
2019-01-18T23:44:13.871Z,97.00
2019-01-18T23:47:07.620Z,97.00
2019-01-18T23:50:15.110Z,97.00
2019-01-18T23:53:22.411Z,97.00
2019-01-18T23:56:29.772Z,97.00
2019-01-18T23:59:22.529Z,97.00
